Terminal Aerodrome Forecast
Issued by NWS

Home | Current Version | Previous Version | Text Only | Print | Product List | Glossary Off
Versions: 1 2 3 4 5 6 7 8 9 10 11 12 13 14 15 16

000
FTUS43 KICT 301600 AAC
TAFSLN
TAF AMD
KSLN 301617Z 3016/0112 18011KT P6SM VCSH OVC070
      TEMPO 3016/3018 4SM SHRA
     FM301900 18014G20KT P6SM BKN080
     FM302300 18015G22KT P6SM VCTS BKN080CB
     FM010400 18012KT P6SM VCSH BKN060=

USA.gov is the U.S. government's official web portal to all federal, state and local government web resources and services.